sensor_id;sensor_type;location;lat;lon;timestamp;P1;durP1;ratioP1;P2;durP2;ratioP2
52642;SDS011;38531;53.296;6.614;2023-05-23T00:00:22;28.95;;;8.77;;
52642;SDS011;38531;53.296;6.614;2023-05-23T00:02:48;20.33;;;7.05;;
52642;SDS011;38531;53.296;6.614;2023-05-23T00:05:13;19.30;;;6.82;;
52642;SDS011;38531;53.296;6.614;2023-05-23T00:07:42;34.97;;;9.88;;
52642;SDS011;38531;53.296;6.614;2023-05-23T00:10:09;26.63;;;8.23;;
52642;SDS011;38531;53.296;6.614;2023-05-23T00:12:35;23.05;;;9.10;;
52642;SDS011;38531;53.296;6.614;2023-05-23T00:15:03;24.17;;;9.30;;
52642;SDS011;38531;53.296;6.614;2023-05-23T00:17:31;22.17;;;7.60;;
52642;SDS011;38531;53.296;6.614;2023-05-23T00:19:57;18.67;;;8.80;;
52642;SDS011;38531;53.296;6.614;2023-05-23T00:22:23;24.15;;;8.57;;
52642;SDS011;38531;53.296;6.614;2023-05-23T00:24:49;18.70;;;7.80;;
52642;SDS011;38531;53.296;6.614;2023-05-23T00:27:15;19.60;;;8.68;;
52642;SDS011;38531;53.296;6.614;2023-05-23T00:29:40;19.83;;;8.45;;
52642;SDS011;38531;53.296;6.614;2023-05-23T00:32:06;26.60;;;9.88;;
52642;SDS011;38531;53.296;6.614;2023-05-23T00:34:31;18.55;;;8.65;;
52642;SDS011;38531;53.296;6.614;2023-05-23T00:36:58;21.88;;;10.35;;
52642;SDS011;38531;53.296;6.614;2023-05-23T00:39:26;22.70;;;11.18;;
52642;SDS011;38531;53.296;6.614;2023-05-23T00:41:51;18.38;;;11.52;;
52642;SDS011;38531;53.296;6.614;2023-05-23T00:44:17;27.08;;;10.68;;
52642;SDS011;38531;53.296;6.614;2023-05-23T00:46:44;16.00;;;8.57;;
52642;SDS011;38531;53.296;6.614;2023-05-23T00:49:13;17.63;;;8.20;;
52642;SDS011;38531;53.296;6.614;2023-05-23T00:51:39;18.33;;;7.25;;
52642;SDS011;38531;53.296;6.614;2023-05-23T00:54:07;13.15;;;7.55;;
52642;SDS011;38531;53.296;6.614;2023-05-23T00:56:34;21.38;;;8.55;;
52642;SDS011;38531;53.296;6.614;2023-05-23T00:59:00;16.55;;;8.00;;
52642;SDS011;38531;53.296;6.614;2023-05-23T01:01:26;15.07;;;6.97;;
52642;SDS011;38531;53.296;6.614;2023-05-23T01:03:52;15.07;;;6.00;;
52642;SDS011;38531;53.296;6.614;2023-05-23T01:06:18;13.68;;;6.55;;
52642;SDS011;38531;53.296;6.614;2023-05-23T01:08:44;13.77;;;5.35;;
52642;SDS011;38531;53.296;6.614;2023-05-23T01:11:16;11.18;;;4.93;;
52642;SDS011;38531;53.296;6.614;2023-05-23T01:13:58;7.80;;;4.18;;
52642;SDS011;38531;53.296;6.614;2023-05-23T01:16:31;9.15;;;4.15;;
52642;SDS011;38531;53.296;6.614;2023-05-23T01:19:31;13.70;;;3.33;;
52642;SDS011;38531;53.296;6.614;2023-05-23T01:22:26;18.55;;;4.70;;
52642;SDS011;38531;53.296;6.614;2023-05-23T01:27:52;12.52;;;3.67;;
52642;SDS011;38531;53.296;6.614;2023-05-23T01:30:20;14.68;;;5.18;;
52642;SDS011;38531;53.296;6.614;2023-05-23T01:32:52;15.75;;;4.93;;
52642;SDS011;38531;53.296;6.614;2023-05-23T01:35:26;11.57;;;4.13;;
52642;SDS011;38531;53.296;6.614;2023-05-23T01:37:52;16.58;;;4.40;;
52642;SDS011;38531;53.296;6.614;2023-05-23T01:40:19;18.33;;;5.40;;
52642;SDS011;38531;53.296;6.614;2023-05-23T01:42:45;14.93;;;5.22;;
52642;SDS011;38531;53.296;6.614;2023-05-23T01:45:11;20.08;;;5.65;;
52642;SDS011;38531;53.296;6.614;2023-05-23T01:47:38;19.80;;;5.03;;
52642;SDS011;38531;53.296;6.614;2023-05-23T01:50:05;18.17;;;5.13;;
52642;SDS011;38531;53.296;6.614;2023-05-23T01:52:33;19.00;;;5.13;;
52642;SDS011;38531;53.296;6.614;2023-05-23T01:54:59;16.58;;;5.78;;
52642;SDS011;38531;53.296;6.614;2023-05-23T01:57:26;23.15;;;6.32;;
52642;SDS011;38531;53.296;6.614;2023-05-23T01:59:54;15.60;;;5.43;;
52642;SDS011;38531;53.296;6.614;2023-05-23T02:02:20;15.43;;;5.57;;
52642;SDS011;38531;53.296;6.614;2023-05-23T02:04:47;13.88;;;5.80;;
52642;SDS011;38531;53.296;6.614;2023-05-23T02:07:13;19.17;;;5.97;;
52642;SDS011;38531;53.296;6.614;2023-05-23T02:09:39;19.70;;;5.40;;
52642;SDS011;38531;53.296;6.614;2023-05-23T02:12:04;21.98;;;5.47;;
52642;SDS011;38531;53.296;6.614;2023-05-23T02:14:30;13.38;;;5.18;;
52642;SDS011;38531;53.296;6.614;2023-05-23T02:16:56;13.63;;;5.03;;
52642;SDS011;38531;53.296;6.614;2023-05-23T02:19:22;10.43;;;4.50;;
52642;SDS011;38531;53.296;6.614;2023-05-23T02:21:47;16.52;;;4.40;;
52642;SDS011;38531;53.296;6.614;2023-05-23T02:24:13;13.35;;;4.38;;
52642;SDS011;38531;53.296;6.614;2023-05-23T02:26:39;17.90;;;4.20;;
52642;SDS011;38531;53.296;6.614;2023-05-23T02:29:05;16.73;;;4.25;;
52642;SDS011;38531;53.296;6.614;2023-05-23T02:31:31;9.20;;;3.72;;
52642;SDS011;38531;53.296;6.614;2023-05-23T02:33:57;11.48;;;4.00;;
52642;SDS011;38531;53.296;6.614;2023-05-23T02:36:22;13.55;;;3.97;;
52642;SDS011;38531;53.296;6.614;2023-05-23T02:38:48;14.43;;;4.07;;
52642;SDS011;38531;53.296;6.614;2023-05-23T02:41:13;22.92;;;4.30;;
52642;SDS011;38531;53.296;6.614;2023-05-23T02:43:39;11.50;;;3.97;;
52642;SDS011;38531;53.296;6.614;2023-05-23T02:46:05;17.42;;;4.72;;
52642;SDS011;38531;53.296;6.614;2023-05-23T02:48:30;10.68;;;4.03;;
52642;SDS011;38531;53.296;6.614;2023-05-23T02:50:56;15.52;;;4.55;;
52642;SDS011;38531;53.296;6.614;2023-05-23T02:53:22;18.85;;;5.60;;
52642;SDS011;38531;53.296;6.614;2023-05-23T02:55:47;16.48;;;3.83;;
52642;SDS011;38531;53.296;6.614;2023-05-23T02:58:13;13.05;;;5.13;;
52642;SDS011;38531;53.296;6.614;2023-05-23T03:00:38;22.98;;;5.80;;
52642;SDS011;38531;53.296;6.614;2023-05-23T03:03:04;9.43;;;4.00;;
52642;SDS011;38531;53.296;6.614;2023-05-23T03:05:30;16.63;;;5.78;;
52642;SDS011;38531;53.296;6.614;2023-05-23T03:07:55;18.98;;;4.72;;
52642;SDS011;38531;53.296;6.614;2023-05-23T03:10:21;15.10;;;4.35;;
52642;SDS011;38531;53.296;6.614;2023-05-23T03:12:47;17.10;;;4.40;;
52642;SDS011;38531;53.296;6.614;2023-05-23T03:15:13;21.73;;;5.68;;
52642;SDS011;38531;53.296;6.614;2023-05-23T03:17:38;20.98;;;5.53;;
52642;SDS011;38531;53.296;6.614;2023-05-23T03:20:04;13.55;;;4.22;;
52642;SDS011;38531;53.296;6.614;2023-05-23T03:22:33;21.95;;;4.75;;
52642;SDS011;38531;53.296;6.614;2023-05-23T03:24:59;29.70;;;6.20;;
52642;SDS011;38531;53.296;6.614;2023-05-23T03:27:25;14.35;;;5.18;;
52642;SDS011;38531;53.296;6.614;2023-05-23T03:29:51;15.20;;;4.47;;
52642;SDS011;38531;53.296;6.614;2023-05-23T03:32:16;18.80;;;4.43;;
52642;SDS011;38531;53.296;6.614;2023-05-23T03:34:42;11.57;;;4.10;;
52642;SDS011;38531;53.296;6.614;2023-05-23T03:37:08;15.50;;;4.05;;
52642;SDS011;38531;53.296;6.614;2023-05-23T03:39:33;17.08;;;3.92;;
52642;SDS011;38531;53.296;6.614;2023-05-23T03:41:59;15.50;;;4.13;;
52642;SDS011;38531;53.296;6.614;2023-05-23T03:44:25;11.63;;;3.65;;
52642;SDS011;38531;53.296;6.614;2023-05-23T03:46:51;10.20;;;2.90;;
52642;SDS011;38531;53.296;6.614;2023-05-23T03:49:16;11.10;;;3.20;;
52642;SDS011;38531;53.296;6.614;2023-05-23T03:51:42;14.20;;;3.75;;
52642;SDS011;38531;53.296;6.614;2023-05-23T03:54:07;12.52;;;4.07;;
52642;SDS011;38531;53.296;6.614;2023-05-23T03:56:33;9.45;;;2.83;;
52642;SDS011;38531;53.296;6.614;2023-05-23T03:58:59;12.00;;;3.42;;
52642;SDS011;38531;53.296;6.614;2023-05-23T04:01:25;10.32;;;2.90;;
52642;SDS011;38531;53.296;6.614;2023-05-23T04:03:51;8.23;;;2.60;;
52642;SDS011;38531;53.296;6.614;2023-05-23T04:06:17;19.50;;;4.50;;
52642;SDS011;38531;53.296;6.614;2023-05-23T04:08:44;15.93;;;2.67;;
52642;SDS011;38531;53.296;6.614;2023-05-23T04:11:10;13.23;;;2.38;;
52642;SDS011;38531;53.296;6.614;2023-05-23T04:13:35;10.82;;;2.63;;
52642;SDS011;38531;53.296;6.614;2023-05-23T04:16:02;9.35;;;2.13;;
52642;SDS011;38531;53.296;6.614;2023-05-23T04:18:30;8.52;;;1.92;;
52642;SDS011;38531;53.296;6.614;2023-05-23T04:20:57;9.43;;;1.77;;
52642;SDS011;38531;53.296;6.614;2023-05-23T04:23:23;10.57;;;2.40;;
52642;SDS011;38531;53.296;6.614;2023-05-23T04:25:49;10.05;;;2.35;;
52642;SDS011;38531;53.296;6.614;2023-05-23T04:28:15;10.00;;;2.30;;
52642;SDS011;38531;53.296;6.614;2023-05-23T04:30:43;11.65;;;2.60;;
52642;SDS011;38531;53.296;6.614;2023-05-23T04:33:08;7.75;;;1.85;;
52642;SDS011;38531;53.296;6.614;2023-05-23T04:35:35;8.75;;;1.92;;
52642;SDS011;38531;53.296;6.614;2023-05-23T04:38:04;12.20;;;1.75;;
52642;SDS011;38531;53.296;6.614;2023-05-23T04:40:30;6.03;;;2.13;;
52642;SDS011;38531;53.296;6.614;2023-05-23T04:42:56;7.75;;;2.40;;
52642;SDS011;38531;53.296;6.614;2023-05-23T04:45:22;15.05;;;2.97;;
52642;SDS011;38531;53.296;6.614;2023-05-23T04:47:47;18.33;;;3.55;;
52642;SDS011;38531;53.296;6.614;2023-05-23T04:50:13;9.52;;;3.35;;
52642;SDS011;38531;53.296;6.614;2023-05-23T04:52:39;17.92;;;4.20;;
52642;SDS011;38531;53.296;6.614;2023-05-23T04:55:05;13.25;;;3.85;;
52642;SDS011;38531;53.296;6.614;2023-05-23T04:57:33;14.70;;;4.03;;
52642;SDS011;38531;53.296;6.614;2023-05-23T04:59:59;14.38;;;5.20;;
52642;SDS011;38531;53.296;6.614;2023-05-23T05:02:25;15.13;;;4.82;;
52642;SDS011;38531;53.296;6.614;2023-05-23T05:04:51;14.50;;;4.75;;
52642;SDS011;38531;53.296;6.614;2023-05-23T05:07:17;17.90;;;4.45;;
52642;SDS011;38531;53.296;6.614;2023-05-23T05:09:43;12.13;;;4.38;;
52642;SDS011;38531;53.296;6.614;2023-05-23T05:12:08;13.35;;;3.92;;
52642;SDS011;38531;53.296;6.614;2023-05-23T05:14:36;16.63;;;3.70;;
52642;SDS011;38531;53.296;6.614;2023-05-23T05:17:01;12.70;;;3.90;;
52642;SDS011;38531;53.296;6.614;2023-05-23T05:19:28;14.85;;;3.90;;
52642;SDS011;38531;53.296;6.614;2023-05-23T05:21:53;10.85;;;3.35;;
52642;SDS011;38531;53.296;6.614;2023-05-23T05:24:19;12.45;;;4.43;;
52642;SDS011;38531;53.296;6.614;2023-05-23T05:26:48;14.95;;;4.57;;
52642;SDS011;38531;53.296;6.614;2023-05-23T05:29:13;16.02;;;4.82;;
52642;SDS011;38531;53.296;6.614;2023-05-23T05:31:40;15.68;;;3.42;;
52642;SDS011;38531;53.296;6.614;2023-05-23T05:34:06;12.77;;;3.95;;
52642;SDS011;38531;53.296;6.614;2023-05-23T05:36:31;15.57;;;4.13;;
52642;SDS011;38531;53.296;6.614;2023-05-23T05:38:57;11.52;;;3.75;;
52642;SDS011;38531;53.296;6.614;2023-05-23T05:41:23;8.95;;;3.60;;
52642;SDS011;38531;53.296;6.614;2023-05-23T05:43:51;13.35;;;3.35;;
52642;SDS011;38531;53.296;6.614;2023-05-23T05:46:17;11.25;;;2.97;;
52642;SDS011;38531;53.296;6.614;2023-05-23T05:48:42;13.63;;;2.78;;
52642;SDS011;38531;53.296;6.614;2023-05-23T05:51:08;11.20;;;2.10;;
52642;SDS011;38531;53.296;6.614;2023-05-23T05:53:33;5.82;;;2.00;;
52642;SDS011;38531;53.296;6.614;2023-05-23T05:55:59;12.48;;;3.78;;
52642;SDS011;38531;53.296;6.614;2023-05-23T05:58:26;7.43;;;2.28;;
52642;SDS011;38531;53.296;6.614;2023-05-23T06:00:51;6.90;;;2.03;;
52642;SDS011;38531;53.296;6.614;2023-05-23T06:03:17;10.00;;;1.92;;
52642;SDS011;38531;53.296;6.614;2023-05-23T06:05:43;9.27;;;1.73;;
52642;SDS011;38531;53.296;6.614;2023-05-23T06:08:09;10.82;;;2.17;;
52642;SDS011;38531;53.296;6.614;2023-05-23T06:10:36;9.55;;;2.33;;
52642;SDS011;38531;53.296;6.614;2023-05-23T06:13:03;8.55;;;2.00;;
52642;SDS011;38531;53.296;6.614;2023-05-23T06:15:29;11.40;;;2.40;;
52642;SDS011;38531;53.296;6.614;2023-05-23T06:17:54;12.40;;;3.08;;
52642;SDS011;38531;53.296;6.614;2023-05-23T06:20:20;12.82;;;2.53;;
52642;SDS011;38531;53.296;6.614;2023-05-23T06:22:46;16.73;;;2.45;;
52642;SDS011;38531;53.296;6.614;2023-05-23T06:25:11;15.57;;;2.65;;
52642;SDS011;38531;53.296;6.614;2023-05-23T06:27:37;13.15;;;3.10;;
52642;SDS011;38531;53.296;6.614;2023-05-23T06:30:03;15.65;;;2.85;;
52642;SDS011;38531;53.296;6.614;2023-05-23T06:32:29;18.45;;;2.63;;
52642;SDS011;38531;53.296;6.614;2023-05-23T06:34:55;13.85;;;2.80;;
52642;SDS011;38531;53.296;6.614;2023-05-23T06:37:21;13.00;;;2.70;;
52642;SDS011;38531;53.296;6.614;2023-05-23T06:39:46;17.23;;;2.60;;
52642;SDS011;38531;53.296;6.614;2023-05-23T06:42:12;14.07;;;2.08;;
52642;SDS011;38531;53.296;6.614;2023-05-23T06:44:38;10.63;;;2.63;;
52642;SDS011;38531;53.296;6.614;2023-05-23T06:47:04;12.90;;;2.30;;
52642;SDS011;38531;53.296;6.614;2023-05-23T06:49:30;21.23;;;2.50;;
52642;SDS011;38531;53.296;6.614;2023-05-23T06:51:56;13.82;;;3.15;;
52642;SDS011;38531;53.296;6.614;2023-05-23T06:54:21;15.65;;;2.50;;
52642;SDS011;38531;53.296;6.614;2023-05-23T06:56:47;16.52;;;1.90;;
52642;SDS011;38531;53.296;6.614;2023-05-23T06:59:12;13.48;;;2.25;;
52642;SDS011;38531;53.296;6.614;2023-05-23T07:01:38;12.63;;;2.05;;
52642;SDS011;38531;53.296;6.614;2023-05-23T07:04:04;17.40;;;3.55;;
52642;SDS011;38531;53.296;6.614;2023-05-23T07:06:30;13.25;;;1.63;;
52642;SDS011;38531;53.296;6.614;2023-05-23T07:08:56;18.35;;;2.13;;
52642;SDS011;38531;53.296;6.614;2023-05-23T07:11:22;17.00;;;1.98;;
52642;SDS011;38531;53.296;6.614;2023-05-23T07:13:48;8.88;;;2.95;;
52642;SDS011;38531;53.296;6.614;2023-05-23T07:16:14;12.98;;;1.52;;
52642;SDS011;38531;53.296;6.614;2023-05-23T07:18:39;14.82;;;2.13;;
52642;SDS011;38531;53.296;6.614;2023-05-23T07:21:05;11.30;;;2.05;;
52642;SDS011;38531;53.296;6.614;2023-05-23T07:23:31;12.40;;;2.10;;
52642;SDS011;38531;53.296;6.614;2023-05-23T07:25:58;14.68;;;2.78;;
52642;SDS011;38531;53.296;6.614;2023-05-23T07:28:24;18.77;;;2.30;;
52642;SDS011;38531;53.296;6.614;2023-05-23T07:30:50;8.15;;;1.63;;
52642;SDS011;38531;53.296;6.614;2023-05-23T07:33:16;11.77;;;1.90;;
52642;SDS011;38531;53.296;6.614;2023-05-23T07:35:42;9.68;;;1.85;;
52642;SDS011;38531;53.296;6.614;2023-05-23T07:38:08;8.75;;;1.48;;
52642;SDS011;38531;53.296;6.614;2023-05-23T07:40:34;16.95;;;2.10;;
52642;SDS011;38531;53.296;6.614;2023-05-23T07:43:01;21.63;;;1.90;;
52642;SDS011;38531;53.296;6.614;2023-05-23T07:45:27;8.48;;;1.45;;
52642;SDS011;38531;53.296;6.614;2023-05-23T07:47:53;22.33;;;2.13;;
52642;SDS011;38531;53.296;6.614;2023-05-23T07:50:18;19.75;;;2.50;;
52642;SDS011;38531;53.296;6.614;2023-05-23T07:52:44;24.10;;;2.80;;
52642;SDS011;38531;53.296;6.614;2023-05-23T07:55:10;13.10;;;2.05;;
52642;SDS011;38531;53.296;6.614;2023-05-23T07:57:36;13.93;;;1.70;;
52642;SDS011;38531;53.296;6.614;2023-05-23T08:00:02;18.67;;;4.32;;
52642;SDS011;38531;53.296;6.614;2023-05-23T08:02:29;18.75;;;1.80;;
52642;SDS011;38531;53.296;6.614;2023-05-23T08:04:55;23.67;;;3.08;;
52642;SDS011;38531;53.296;6.614;2023-05-23T08:07:21;9.95;;;1.60;;
52642;SDS011;38531;53.296;6.614;2023-05-23T08:09:46;9.43;;;1.67;;
52642;SDS011;38531;53.296;6.614;2023-05-23T08:12:12;18.13;;;2.78;;
52642;SDS011;38531;53.296;6.614;2023-05-23T08:14:38;12.88;;;1.88;;
52642;SDS011;38531;53.296;6.614;2023-05-23T08:17:04;18.50;;;1.90;;
52642;SDS011;38531;53.296;6.614;2023-05-23T08:19:29;17.67;;;1.92;;
52642;SDS011;38531;53.296;6.614;2023-05-23T08:21:55;14.10;;;2.08;;
52642;SDS011;38531;53.296;6.614;2023-05-23T08:24:21;15.75;;;2.55;;
52642;SDS011;38531;53.296;6.614;2023-05-23T08:26:47;14.30;;;2.22;;
52642;SDS011;38531;53.296;6.614;2023-05-23T08:29:14;10.32;;;1.30;;
52642;SDS011;38531;53.296;6.614;2023-05-23T08:31:39;11.82;;;1.85;;
52642;SDS011;38531;53.296;6.614;2023-05-23T08:34:05;16.17;;;2.42;;
52642;SDS011;38531;53.296;6.614;2023-05-23T08:36:32;12.98;;;2.22;;
52642;SDS011;38531;53.296;6.614;2023-05-23T08:39:00;10.15;;;1.83;;
52642;SDS011;38531;53.296;6.614;2023-05-23T08:41:26;13.88;;;1.55;;
52642;SDS011;38531;53.296;6.614;2023-05-23T08:43:53;18.73;;;2.10;;
52642;SDS011;38531;53.296;6.614;2023-05-23T08:46:20;10.15;;;2.10;;
52642;SDS011;38531;53.296;6.614;2023-05-23T08:48:50;17.08;;;3.05;;
52642;SDS011;38531;53.296;6.614;2023-05-23T08:51:24;12.30;;;1.70;;
52642;SDS011;38531;53.296;6.614;2023-05-23T08:53:51;9.57;;;1.83;;
52642;SDS011;38531;53.296;6.614;2023-05-23T08:56:20;10.13;;;1.40;;
52642;SDS011;38531;53.296;6.614;2023-05-23T08:58:47;9.48;;;1.13;;
52642;SDS011;38531;53.296;6.614;2023-05-23T09:01:13;10.80;;;1.45;;
52642;SDS011;38531;53.296;6.614;2023-05-23T09:03:42;12.60;;;1.83;;
52642;SDS011;38531;53.296;6.614;2023-05-23T09:06:09;10.15;;;1.92;;
52642;SDS011;38531;53.296;6.614;2023-05-23T09:08:35;7.35;;;1.30;;
52642;SDS011;38531;53.296;6.614;2023-05-23T09:11:04;7.25;;;1.70;;
52642;SDS011;38531;53.296;6.614;2023-05-23T09:13:31;13.48;;;1.90;;
52642;SDS011;38531;53.296;6.614;2023-05-23T09:18:26;6.80;;;1.45;;
52642;SDS011;38531;53.296;6.614;2023-05-23T09:20:57;11.55;;;1.85;;
52642;SDS011;38531;53.296;6.614;2023-05-23T09:23:23;10.63;;;1.23;;
52642;SDS011;38531;53.296;6.614;2023-05-23T09:25:48;10.70;;;1.40;;
52642;SDS011;38531;53.296;6.614;2023-05-23T09:28:14;8.23;;;1.65;;
52642;SDS011;38531;53.296;6.614;2023-05-23T09:30:40;9.98;;;1.70;;
52642;SDS011;38531;53.296;6.614;2023-05-23T09:33:05;12.52;;;1.88;;
52642;SDS011;38531;53.296;6.614;2023-05-23T09:35:31;6.43;;;1.35;;
52642;SDS011;38531;53.296;6.614;2023-05-23T09:37:57;10.43;;;1.30;;
52642;SDS011;38531;53.296;6.614;2023-05-23T09:40:27;9.75;;;1.42;;
52642;SDS011;38531;53.296;6.614;2023-05-23T09:43:00;11.63;;;1.60;;
52642;SDS011;38531;53.296;6.614;2023-05-23T09:45:28;8.57;;;1.55;;
52642;SDS011;38531;53.296;6.614;2023-05-23T09:47:55;14.18;;;2.17;;
52642;SDS011;38531;53.296;6.614;2023-05-23T09:50:21;15.48;;;1.83;;
52642;SDS011;38531;53.296;6.614;2023-05-23T09:52:47;15.13;;;1.75;;
52642;SDS011;38531;53.296;6.614;2023-05-23T09:55:13;11.40;;;1.45;;
52642;SDS011;38531;53.296;6.614;2023-05-23T09:57:40;6.60;;;1.17;;
52642;SDS011;38531;53.296;6.614;2023-05-23T10:00:07;7.10;;;1.17;;
52642;SDS011;38531;53.296;6.614;2023-05-23T10:08:01;9.57;;;1.38;;
52642;SDS011;38531;53.296;6.614;2023-05-23T10:10:31;12.82;;;2.38;;
52642;SDS011;38531;53.296;6.614;2023-05-23T10:12:58;12.07;;;2.75;;
52642;SDS011;38531;53.296;6.614;2023-05-23T10:15:30;14.55;;;2.03;;
52642;SDS011;38531;53.296;6.614;2023-05-23T10:18:10;12.50;;;1.30;;
52642;SDS011;38531;53.296;6.614;2023-05-23T10:20:42;8.57;;;1.75;;
52642;SDS011;38531;53.296;6.614;2023-05-23T10:23:11;9.23;;;1.20;;
52642;SDS011;38531;53.296;6.614;2023-05-23T10:25:37;11.65;;;1.30;;
52642;SDS011;38531;53.296;6.614;2023-05-23T10:28:06;10.90;;;1.45;;
52642;SDS011;38531;53.296;6.614;2023-05-23T10:30:31;11.27;;;1.75;;
52642;SDS011;38531;53.296;6.614;2023-05-23T10:32:58;9.07;;;1.50;;
52642;SDS011;38531;53.296;6.614;2023-05-23T10:40:47;13.75;;;1.45;;
52642;SDS011;38531;53.296;6.614;2023-05-23T10:44:00;7.53;;;1.02;;
52642;SDS011;38531;53.296;6.614;2023-05-23T10:46:52;13.35;;;1.98;;
52642;SDS011;38531;53.296;6.614;2023-05-23T10:49:40;13.65;;;1.95;;
52642;SDS011;38531;53.296;6.614;2023-05-23T10:52:08;7.53;;;1.17;;
52642;SDS011;38531;53.296;6.614;2023-05-23T10:54:35;13.35;;;2.20;;
52642;SDS011;38531;53.296;6.614;2023-05-23T10:57:15;14.63;;;2.42;;
52642;SDS011;38531;53.296;6.614;2023-05-23T10:59:44;11.60;;;1.45;;
52642;SDS011;38531;53.296;6.614;2023-05-23T11:02:14;7.13;;;1.63;;
52642;SDS011;38531;53.296;6.614;2023-05-23T11:04:43;10.70;;;1.17;;
52642;SDS011;38531;53.296;6.614;2023-05-23T11:07:28;11.50;;;1.65;;
52642;SDS011;38531;53.296;6.614;2023-05-23T11:10:11;6.70;;;1.27;;
52642;SDS011;38531;53.296;6.614;2023-05-23T11:12:41;12.52;;;1.42;;
52642;SDS011;38531;53.296;6.614;2023-05-23T11:17:51;10.45;;;1.85;;
52642;SDS011;38531;53.296;6.614;2023-05-23T11:20:19;8.70;;;1.63;;
52642;SDS011;38531;53.296;6.614;2023-05-23T11:23:01;9.32;;;1.20;;
52642;SDS011;38531;53.296;6.614;2023-05-23T11:25:49;9.23;;;1.63;;
52642;SDS011;38531;53.296;6.614;2023-05-23T11:28:15;11.77;;;1.50;;
52642;SDS011;38531;53.296;6.614;2023-05-23T11:30:41;10.63;;;1.73;;
52642;SDS011;38531;53.296;6.614;2023-05-23T11:33:08;5.93;;;1.38;;
52642;SDS011;38531;53.296;6.614;2023-05-23T11:35:47;8.75;;;1.65;;
52642;SDS011;38531;53.296;6.614;2023-05-23T11:38:16;8.95;;;1.48;;
52642;SDS011;38531;53.296;6.614;2023-05-23T11:40:44;7.00;;;1.25;;
52642;SDS011;38531;53.296;6.614;2023-05-23T11:43:12;11.85;;;1.40;;
52642;SDS011;38531;53.296;6.614;2023-05-23T11:45:39;10.65;;;1.70;;
52642;SDS011;38531;53.296;6.614;2023-05-23T11:50:42;9.05;;;1.52;;
52642;SDS011;38531;53.296;6.614;2023-05-23T11:53:17;7.28;;;1.35;;
52642;SDS011;38531;53.296;6.614;2023-05-23T11:58:15;10.98;;;1.27;;
52642;SDS011;38531;53.296;6.614;2023-05-23T12:00:43;15.43;;;1.60;;
52642;SDS011;38531;53.296;6.614;2023-05-23T12:03:10;7.43;;;1.20;;
52642;SDS011;38531;53.296;6.614;2023-05-23T12:05:36;8.68;;;1.00;;
52642;SDS011;38531;53.296;6.614;2023-05-23T12:08:01;11.63;;;1.27;;
52642;SDS011;38531;53.296;6.614;2023-05-23T12:10:27;10.35;;;1.73;;
52642;SDS011;38531;53.296;6.614;2023-05-23T12:12:53;10.30;;;1.23;;
52642;SDS011;38531;53.296;6.614;2023-05-23T12:15:23;9.10;;;1.08;;
52642;SDS011;38531;53.296;6.614;2023-05-23T12:17:52;8.27;;;1.00;;
52642;SDS011;38531;53.296;6.614;2023-05-23T12:20:19;14.80;;;2.13;;
52642;SDS011;38531;53.296;6.614;2023-05-23T12:22:45;12.57;;;1.50;;
52642;SDS011;38531;53.296;6.614;2023-05-23T12:25:11;8.18;;;1.63;;
52642;SDS011;38531;53.296;6.614;2023-05-23T12:27:38;7.32;;;1.17;;
52642;SDS011;38531;53.296;6.614;2023-05-23T12:32:39;8.32;;;1.10;;
52642;SDS011;38531;53.296;6.614;2023-05-23T12:35:06;9.45;;;1.13;;
52642;SDS011;38531;53.296;6.614;2023-05-23T12:37:33;10.00;;;1.25;;
52642;SDS011;38531;53.296;6.614;2023-05-23T12:42:51;5.63;;;1.63;;
52642;SDS011;38531;53.296;6.614;2023-05-23T12:45:22;5.75;;;1.17;;
52642;SDS011;38531;53.296;6.614;2023-05-23T12:47:55;11.93;;;1.42;;
52642;SDS011;38531;53.296;6.614;2023-05-23T12:50:20;11.82;;;1.35;;
52642;SDS011;38531;53.296;6.614;2023-05-23T12:52:47;12.90;;;1.52;;
52642;SDS011;38531;53.296;6.614;2023-05-23T12:55:12;4.97;;;0.90;;
52642;SDS011;38531;53.296;6.614;2023-05-23T12:57:38;9.55;;;1.50;;
52642;SDS011;38531;53.296;6.614;2023-05-23T13:00:04;8.40;;;1.45;;
52642;SDS011;38531;53.296;6.614;2023-05-23T13:02:30;10.50;;;1.20;;
52642;SDS011;38531;53.296;6.614;2023-05-23T13:04:56;18.70;;;2.00;;
52642;SDS011;38531;53.296;6.614;2023-05-23T13:07:22;10.48;;;1.17;;
52642;SDS011;38531;53.296;6.614;2023-05-23T13:09:48;9.85;;;0.98;;
52642;SDS011;38531;53.296;6.614;2023-05-23T13:12:14;9.95;;;1.45;;
52642;SDS011;38531;53.296;6.614;2023-05-23T13:14:40;13.00;;;1.60;;
52642;SDS011;38531;53.296;6.614;2023-05-23T13:17:06;8.95;;;1.23;;
52642;SDS011;38531;53.296;6.614;2023-05-23T13:19:34;8.88;;;1.20;;
52642;SDS011;38531;53.296;6.614;2023-05-23T13:22:00;10.00;;;1.23;;
52642;SDS011;38531;53.296;6.614;2023-05-23T13:24:28;7.88;;;1.13;;
52642;SDS011;38531;53.296;6.614;2023-05-23T13:26:54;9.98;;;1.45;;
52642;SDS011;38531;53.296;6.614;2023-05-23T13:36:16;10.45;;;1.25;;
52642;SDS011;38531;53.296;6.614;2023-05-23T13:38:42;10.23;;;1.33;;
52642;SDS011;38531;53.296;6.614;2023-05-23T13:41:07;6.97;;;1.42;;
52642;SDS011;38531;53.296;6.614;2023-05-23T13:43:33;8.70;;;1.60;;
52642;SDS011;38531;53.296;6.614;2023-05-23T13:46:00;7.05;;;1.23;;
52642;SDS011;38531;53.296;6.614;2023-05-23T13:48:27;7.68;;;0.90;;
52642;SDS011;38531;53.296;6.614;2023-05-23T13:50:53;6.78;;;1.27;;
52642;SDS011;38531;53.296;6.614;2023-05-23T13:53:19;9.95;;;1.25;;
52642;SDS011;38531;53.296;6.614;2023-05-23T13:55:45;11.93;;;1.42;;
52642;SDS011;38531;53.296;6.614;2023-05-23T13:58:11;7.10;;;0.98;;
52642;SDS011;38531;53.296;6.614;2023-05-23T14:00:37;7.72;;;1.10;;
52642;SDS011;38531;53.296;6.614;2023-05-23T14:03:03;8.52;;;1.00;;
52642;SDS011;38531;53.296;6.614;2023-05-23T14:05:31;11.73;;;1.63;;
52642;SDS011;38531;53.296;6.614;2023-05-23T14:07:56;11.40;;;1.27;;
52642;SDS011;38531;53.296;6.614;2023-05-23T14:10:22;8.55;;;1.75;;
52642;SDS011;38531;53.296;6.614;2023-05-23T14:12:48;8.75;;;1.65;;
52642;SDS011;38531;53.296;6.614;2023-05-23T14:15:15;7.43;;;1.10;;
52642;SDS011;38531;53.296;6.614;2023-05-23T14:17:40;5.30;;;1.05;;
52642;SDS011;38531;53.296;6.614;2023-05-23T14:20:06;8.07;;;1.23;;
52642;SDS011;38531;53.296;6.614;2023-05-23T14:22:32;7.38;;;1.20;;
52642;SDS011;38531;53.296;6.614;2023-05-23T14:24:58;13.07;;;1.10;;
52642;SDS011;38531;53.296;6.614;2023-05-23T14:27:24;8.63;;;2.13;;
52642;SDS011;38531;53.296;6.614;2023-05-23T14:29:50;6.78;;;0.90;;
52642;SDS011;38531;53.296;6.614;2023-05-23T14:32:16;8.82;;;1.27;;
52642;SDS011;38531;53.296;6.614;2023-05-23T14:34:42;7.38;;;1.10;;
52642;SDS011;38531;53.296;6.614;2023-05-23T14:37:07;7.40;;;1.20;;
52642;SDS011;38531;53.296;6.614;2023-05-23T14:39:33;6.18;;;1.00;;
52642;SDS011;38531;53.296;6.614;2023-05-23T14:41:59;8.65;;;1.10;;
52642;SDS011;38531;53.296;6.614;2023-05-23T14:52:43;10.98;;;1.27;;
52642;SDS011;38531;53.296;6.614;2023-05-23T14:55:08;7.38;;;1.55;;
52642;SDS011;38531;53.296;6.614;2023-05-23T14:57:34;9.60;;;1.23;;
52642;SDS011;38531;53.296;6.614;2023-05-23T15:00:00;8.98;;;1.58;;
52642;SDS011;38531;53.296;6.614;2023-05-23T15:02:29;6.70;;;1.02;;
52642;SDS011;38531;53.296;6.614;2023-05-23T15:04:56;8.63;;;1.00;;
52642;SDS011;38531;53.296;6.614;2023-05-23T15:07:21;10.57;;;1.08;;
52642;SDS011;38531;53.296;6.614;2023-05-23T15:09:47;9.48;;;0.80;;
52642;SDS011;38531;53.296;6.614;2023-05-23T15:12:13;8.95;;;1.13;;
52642;SDS011;38531;53.296;6.614;2023-05-23T15:14:41;7.93;;;0.95;;
52642;SDS011;38531;53.296;6.614;2023-05-23T15:17:08;3.95;;;0.70;;
52642;SDS011;38531;53.296;6.614;2023-05-23T15:19:34;5.82;;;1.05;;
52642;SDS011;38531;53.296;6.614;2023-05-23T15:22:01;11.05;;;1.42;;